Rocky Fork Lake, Indiana
Current Conditions -  °F | °C
As of 10:53 AM on Monday 24 Nov 2014 (Local Time) from KHUF Reporting Station
Light Snow Light Snow  
Wind Chill: 29°   Ceiling: 1800
Heat Index: 39°   Visibility: 9mi
Dew Point: 33°   Wind: 22mph
Humidity: 79%   Direction: 260°W
Pressure: 29.55"   Gusts: 32mph
Location:  39.5158°N, 87.1262°W
Report Text: KHUF 241553Z 26019G28KT 9SM -SN OVC018 04/01 A2955 RMK AO2 PK WND 28036/1459 RAE01SNB01 SLP008 P0000 T00390006 $
Loading
Personal Weather Stations






























Interactive Weather Map New forecast layout! Learn more

10-Day Weather Forecast

Advertisements
Track Severe Weather on mobile